Terminal Aerodrome Forecast
Issued by NWS

Home | Current Version | Previous Version | Text Only | Print | Product List | Glossary On
Versions: 1 2 3 4 5 6 7 8 9 10 11 12 13 14 15 16 17 18 19 20 21 22 23 24 25 26 27 28 29 30 31 32 33 34 35 36 37 38 39 40 41 42 43
000
FTUS46 KPQR 182330
TAFONP
TAF
KONP 182330Z 1900/1924 18014G25KT 4SM -RADZ BR SCT007 BKN015 OVC035
     FM190200 19018G30KT 2SM -RADZ BR BKN008 OVC015
     FM190600 22014KT P6SM -SHRA SCT008 BKN020 OVC060
     FM190900 22009KT P6SM -SHRA SCT010 BKN035 BKN060
     FM191700 19012KT P6SM -SHRA SCT045 BKN060=

USA.gov is the U.S. government's official web portal to all federal, state and local government web resources and services.